Time,TemperatureF,DewpointF,PressureIn,WindDirection,WindDirectionDegrees,WindSpeedMPH,WindSpeedGustMPH,Humidity,HourlyPrecipIn,Conditions,Clouds,dailyrainin,SoftwareType,DateUTC
2013-03-14 00:00:00,57.6,37.5,30.34,SSE,157,0.0,0.0,47,0.00,,SKC,0.00,VWS V14.01,2013-03-14 05:00:00,
2013-03-14 00:05:00,57.3,37.3,30.34,SSE,157,0.0,0.0,47,0.00,,SKC,0.00,VWS V14.01,2013-03-14 05:05:00,
2013-03-14 00:10:00,56.9,37.4,30.34,SSE,157,0.0,0.0,48,0.00,,SKC,0.00,VWS V14.01,2013-03-14 05:10:00,
2013-03-14 00:15:00,56.7,37.2,30.34,SSE,157,0.0,0.0,48,0.00,,SKC,0.00,VWS V14.01,2013-03-14 05:15:00,
2013-03-14 00:20:00,56.4,37.5,30.34,SSE,157,0.0,0.0,49,0.00,,SKC,0.00,VWS V14.01,2013-03-14 05:20:00,
2013-03-14 00:25:00,56.3,37.9,30.34,SSE,157,0.0,0.0,50,0.00,,SKC,0.00,VWS V14.01,2013-03-14 05:25:00,
2013-03-14 00:30:00,56.0,38.2,30.34,SSE,157,0.0,0.0,51,0.00,,SKC,0.00,VWS V14.01,2013-03-14 05:30:00,
2013-03-14 00:35:00,55.8,38.5,30.34,SSE,157,0.0,3.0,52,0.00,,SKC,0.00,VWS V14.01,2013-03-14 05:35:00,
2013-03-14 00:40:00,55.5,38.2,30.34,SSE,157,0.0,0.0,52,0.00,,SKC,0.00,VWS V14.01,2013-03-14 05:40:00,
2013-03-14 00:45:00,55.3,38.5,30.34,SSE,157,0.0,0.0,53,0.00,,SKC,0.00,VWS V14.01,2013-03-14 05:45:00,
2013-03-14 00:50:00,55.1,38.8,30.34,SSE,157,1.0,1.0,54,0.00,,SKC,0.00,VWS V14.01,2013-03-14 05:50:00,
2013-03-14 00:55:00,55.0,39.2,30.33,SSE,157,0.0,4.0,55,0.00,,SKC,0.00,VWS V14.01,2013-03-14 05:55:00,
2013-03-14 01:00:00,54.9,39.0,30.33,SSE,157,0.0,3.0,55,0.00,,SKC,0.00,VWS V14.01,2013-03-14 06:00:00,
2013-03-14 01:05:00,54.7,39.3,30.33,SSE,157,0.0,4.0,56,0.00,,SKC,0.00,VWS V14.01,2013-03-14 06:05:00,
2013-03-14 01:10:00,54.6,39.2,30.33,SSE,157,0.0,4.0,56,0.00,,SKC,0.00,VWS V14.01,2013-03-14 06:10:00,
2013-03-14 01:15:00,54.5,39.6,30.33,SSE,157,0.0,4.0,57,0.00,,SKC,0.00,VWS V14.01,2013-03-14 06:15:00,
2013-03-14 01:20:00,54.3,39.4,30.33,SSE,157,0.0,0.0,57,0.00,,SKC,0.00,VWS V14.01,2013-03-14 06:20:00,
2013-03-14 01:25:00,54.1,39.2,30.32,SSE,157,0.0,0.0,57,0.00,,SKC,0.00,VWS V14.01,2013-03-14 06:25:00,
2013-03-14 01:30:00,54.0,39.1,30.32,SSE,157,0.0,0.0,57,0.00,,SKC,0.00,VWS V14.01,2013-03-14 06:30:00,
2013-03-14 01:35:00,53.8,39.4,30.33,SSE,157,0.0,0.0,58,0.00,,SKC,0.00,VWS V14.01,2013-03-14 06:35:00,
2013-03-14 01:40:00,53.6,39.2,30.33,SSE,157,0.0,0.0,58,0.00,,SKC,0.00,VWS V14.01,2013-03-14 06:40:00,
2013-03-14 01:45:00,53.4,39.0,30.32,SSE,157,0.0,0.0,58,0.00,,SKC,0.00,VWS V14.01,2013-03-14 06:45:00,
2013-03-14 01:50:00,53.1,39.2,30.32,SSE,157,0.0,0.0,59,0.00,,SKC,0.00,VWS V14.01,2013-03-14 06:50:00,
2013-03-14 01:55:00,52.8,38.9,30.32,SSE,157,0.0,0.0,59,0.00,,SKC,0.00,VWS V14.01,2013-03-14 06:55:00,
2013-03-14 02:00:00,52.5,39.5,30.32,SSE,157,0.0,0.0,61,0.00,,SKC,0.00,VWS V14.01,2013-03-14 07:00:00,
2013-03-14 02:05:00,52.2,39.6,30.32,SSE,157,0.0,0.0,62,0.00,,SKC,0.00,VWS V14.01,2013-03-14 07:05:00,
2013-03-14 02:10:00,52.0,39.8,30.32,SSE,157,0.0,0.0,63,0.00,,SKC,0.00,VWS V14.01,2013-03-14 07:10:00,
2013-03-14 02:15:00,51.8,40.0,30.33,SSE,157,0.0,0.0,64,0.00,,SKC,0.00,VWS V14.01,2013-03-14 07:15:00,
2013-03-14 02:20:00,51.5,39.7,30.33,SSE,157,0.0,0.0,64,0.00,,SKC,0.00,VWS V14.01,2013-03-14 07:20:00,
2013-03-14 02:25:00,51.3,40.0,30.33,SSE,157,0.0,0.0,65,0.00,,SKC,0.00,VWS V14.01,2013-03-14 07:25:00,
2013-03-14 02:30:00,50.9,40.0,30.33,SSE,157,0.0,0.0,66,0.00,,SKC,0.00,VWS V14.01,2013-03-14 07:30:00,
2013-03-14 02:35:00,50.6,39.7,30.33,SSE,157,0.0,0.0,66,0.00,,SKC,0.00,VWS V14.01,2013-03-14 07:35:00,
2013-03-14 02:40:00,50.3,39.8,30.32,SSE,157,0.0,0.0,67,0.00,,SKC,0.00,VWS V14.01,2013-03-14 07:40:00,
2013-03-14 02:45:00,49.9,39.8,30.32,SSE,157,0.0,0.0,68,0.00,,SKC,0.00,VWS V14.01,2013-03-14 07:45:00,
2013-03-14 02:50:00,49.6,40.2,30.32,SSE,157,0.0,0.0,70,0.00,,SKC,0.00,VWS V14.01,2013-03-14 07:50:00,
2013-03-14 02:55:00,49.4,40.4,30.32,SSE,157,0.0,0.0,71,0.00,,SKC,0.00,VWS V14.01,2013-03-14 07:55:00,
2013-03-14 03:00:00,49.1,40.1,30.32,SSE,157,0.0,0.0,71,0.00,,SKC,0.00,VWS V14.01,2013-03-14 08:00:00,
2013-03-14 03:05:00,48.8,40.2,30.32,SSE,157,0.0,0.0,72,0.00,,SKC,0.00,VWS V14.01,2013-03-14 08:05:00,
2013-03-14 03:10:00,48.6,40.3,30.31,SSE,157,0.0,0.0,73,0.00,,SKC,0.00,VWS V14.01,2013-03-14 08:10:00,
2013-03-14 03:15:00,48.4,40.5,30.31,SSE,157,0.0,0.0,74,0.00,,SKC,0.00,VWS V14.01,2013-03-14 08:15:00,
2013-03-14 03:20:00,48.1,39.9,30.31,SSE,157,0.0,0.0,73,0.00,,SKC,0.00,VWS V14.01,2013-03-14 08:20:00,
2013-03-14 03:30:00,47.8,39.9,30.31,North,0,0.0,0.0,74,0.00,,SKC,0.00,VWS V14.01,2013-03-14 08:30:00,
2013-03-14 03:40:00,47.2,39.7,30.30,North,0,0.0,0.0,75,0.00,,SKC,0.00,VWS V14.01,2013-03-14 08:40:00,
2013-03-14 03:50:00,46.7,39.5,30.30,North,0,0.0,0.0,76,0.00,,SKC,0.00,VWS V14.01,2013-03-14 08:50:00,
2013-03-14 04:00:00,46.2,39.7,30.30,North,0,0.0,0.0,78,0.00,,SKC,0.00,VWS V14.01,2013-03-14 09:00:00,
2013-03-14 04:10:00,45.8,39.7,30.30,North,0,0.0,0.0,79,0.00,,SKC,0.00,VWS V14.01,2013-03-14 09:10:00,
2013-03-14 04:20:00,45.5,39.7,30.30,North,0,0.0,0.0,80,0.00,,SKC,0.00,VWS V14.01,2013-03-14 09:20:00,
2013-03-14 04:30:00,45.2,39.7,30.29,North,0,0.0,0.0,81,0.00,,SKC,0.00,VWS V14.01,2013-03-14 09:30:00,
2013-03-14 04:40:00,44.9,39.4,30.29,North,0,0.0,0.0,81,0.00,,SKC,0.00,VWS V14.01,2013-03-14 09:40:00,
2013-03-14 04:50:00,44.7,39.5,30.29,North,0,0.0,0.0,82,0.00,,SKC,0.00,VWS V14.01,2013-03-14 09:50:00,
2013-03-14 05:00:00,44.5,39.7,30.29,North,0,0.0,0.0,83,0.00,,SKC,0.00,VWS V14.01,2013-03-14 10:00:00,
2013-03-14 05:10:00,44.3,39.5,30.29,North,0,0.0,0.0,83,0.00,,SKC,0.00,VWS V14.01,2013-03-14 10:10:00,
2013-03-14 05:20:00,44.4,39.9,30.30,North,0,0.0,0.0,84,0.00,,SKC,0.00,VWS V14.01,2013-03-14 10:20:00,
2013-03-14 05:30:00,44.5,40.3,30.30,North,0,0.0,0.0,85,0.00,,SKC,0.00,VWS V14.01,2013-03-14 10:30:00,
2013-03-14 05:40:00,44.7,40.8,30.31,North,0,0.0,0.0,86,0.00,,SKC,0.00,VWS V14.01,2013-03-14 10:40:00,
2013-03-14 05:50:00,45.1,41.2,30.30,North,0,0.0,0.0,86,0.00,,SKC,0.00,VWS V14.01,2013-03-14 10:50:00,
2013-03-14 06:00:00,45.2,41.0,30.31,North,0,0.0,0.0,85,0.00,,SKC,0.00,VWS V14.01,2013-03-14 11:00:00,
2013-03-14 06:10:00,45.1,40.6,30.31,North,0,0.0,0.0,84,0.00,,SKC,0.00,VWS V14.01,2013-03-14 11:10:00,
2013-03-14 06:20:00,45.2,41.3,30.32,North,0,0.0,0.0,86,0.00,,SKC,0.00,VWS V14.01,2013-03-14 11:20:00,
2013-03-14 06:30:00,45.4,41.5,30.32,North,0,0.0,0.0,86,0.00,,SKC,0.00,VWS V14.01,2013-03-14 11:30:00,
2013-03-14 06:40:00,45.5,41.9,30.32,North,0,0.0,0.0,87,0.00,,SKC,0.00,VWS V14.01,2013-03-14 11:40:00,
2013-03-14 06:50:00,45.4,41.5,30.32,North,0,0.0,0.0,86,0.00,,SKC,0.00,VWS V14.01,2013-03-14 11:50:00,
2013-03-14 07:00:00,45.2,41.3,30.32,North,0,0.0,0.0,86,0.00,,SKC,0.00,VWS V14.01,2013-03-14 12:00:00,
2013-03-14 07:10:00,45.0,41.4,30.33,North,0,0.0,0.0,87,0.00,,SKC,0.00,VWS V14.01,2013-03-14 12:10:00,
2013-03-14 07:20:00,45.1,41.8,30.33,North,0,0.0,0.0,88,0.00,,SKC,0.00,VWS V14.01,2013-03-14 12:20:00,
2013-03-14 07:30:00,44.9,41.3,30.33,North,0,0.0,0.0,87,0.00,,SKC,0.00,VWS V14.01,2013-03-14 12:30:00,
2013-03-14 07:40:00,44.8,41.5,30.33,North,0,0.0,0.0,88,0.00,,SKC,0.00,VWS V14.01,2013-03-14 12:40:00,
2013-03-14 07:50:00,44.8,41.5,30.34,North,0,0.0,0.0,88,0.00,,SKC,0.00,VWS V14.01,2013-03-14 12:50:00,
2013-03-14 08:00:00,44.8,41.8,30.33,North,0,0.0,0.0,89,0.00,,SKC,0.00,VWS V14.01,2013-03-14 13:00:00,
2013-03-14 08:10:00,45.1,42.3,30.34,North,0,0.0,0.0,90,0.00,,SKC,0.00,VWS V14.01,2013-03-14 13:10:00,
2013-03-14 08:20:00,46.1,43.9,30.34,North,0,0.0,0.0,92,0.00,,SKC,0.00,VWS V14.01,2013-03-14 13:20:00,
2013-03-14 08:30:00,44.9,41.3,30.33,North,0,0.0,0.0,87,0.00,,SKC,0.00,VWS V14.01,2013-03-14 13:30:00,
2013-03-14 08:34:00,48.2,46.0,30.35,SSE,157,0.0,0.0,92,0.00,,SKC,0.00,VWS V14.01,2013-03-14 13:34:00,
2013-03-14 08:39:00,48.8,46.6,30.35,SSE,157,0.0,0.0,92,0.00,,SKC,0.00,VWS V14.01,2013-03-14 13:39:00,
2013-03-14 08:40:00,48.5,46.3,30.35,SSE,157,0.0,0.0,92,0.00,,SKC,0.00,VWS V14.01,2013-03-14 13:40:00,
2013-03-14 08:44:00,49.5,47.3,30.35,SSE,157,0.0,0.0,92,0.00,,SKC,0.00,VWS V14.01,2013-03-14 13:44:00,
2013-03-14 08:49:00,50.2,47.7,30.36,SSE,157,0.0,0.0,91,0.00,,SKC,0.00,VWS V14.01,2013-03-14 13:49:00,
2013-03-14 08:50:00,49.8,47.3,30.35,SSE,157,0.0,0.0,91,0.00,,SKC,0.00,VWS V14.01,2013-03-14 13:50:00,
2013-03-14 08:54:00,50.8,48.0,30.36,SSE,157,0.0,1.0,90,0.00,,SKC,0.00,VWS V14.01,2013-03-14 13:54:00,
2013-03-14 08:59:00,51.3,48.2,30.36,SSE,157,0.0,0.0,89,0.00,,SKC,0.00,VWS V14.01,2013-03-14 13:59:00,
2013-03-14 09:00:00,51.0,48.2,30.36,SSE,157,0.0,1.0,90,0.00,,SKC,0.00,VWS V14.01,2013-03-14 14:00:00,
2013-03-14 09:04:00,51.8,48.7,30.36,SSE,157,0.0,0.0,89,0.00,,SKC,0.00,VWS V14.01,2013-03-14 14:04:00,
2013-03-14 09:09:00,52.3,48.9,30.36,SSE,157,0.0,0.0,88,0.00,,SKC,0.00,VWS V14.01,2013-03-14 14:09:00,
2013-03-14 09:10:00,52.0,48.9,30.36,SSE,157,0.0,0.0,89,0.00,,SKC,0.00,VWS V14.01,2013-03-14 14:10:00,
2013-03-14 09:14:00,52.9,49.5,30.36,SSE,157,0.0,0.0,88,0.00,,SKC,0.00,VWS V14.01,2013-03-14 14:14:00,
2013-03-14 09:19:00,53.4,49.6,30.36,SSE,157,0.0,1.0,87,0.00,,SKC,0.00,VWS V14.01,2013-03-14 14:19:00,
2013-03-14 09:20:00,53.1,49.3,30.36,SSE,157,0.0,0.0,87,0.00,,SKC,0.00,VWS V14.01,2013-03-14 14:20:00,
2013-03-14 09:24:00,54.1,50.3,30.36,SSE,157,3.0,3.0,87,0.00,,SKC,0.00,VWS V14.01,2013-03-14 14:24:00,
2013-03-14 09:29:00,54.8,50.7,30.36,SSE,157,0.0,2.0,86,0.00,,SKC,0.00,VWS V14.01,2013-03-14 14:29:00,
2013-03-14 09:30:00,54.4,50.3,30.37,SSE,157,0.0,4.0,86,0.00,,SKC,0.00,VWS V14.01,2013-03-14 14:30:00,
2013-03-14 09:34:00,55.4,51.0,30.37,SSE,157,0.0,2.0,85,0.00,,SKC,0.00,VWS V14.01,2013-03-14 14:34:00,
2013-03-14 09:39:00,56.1,51.3,30.37,SSE,157,0.0,1.0,84,0.00,,SKC,0.00,VWS V14.01,2013-03-14 14:39:00,
2013-03-14 09:40:00,55.7,51.3,30.37,SSE,157,0.0,2.0,85,0.00,,SKC,0.00,VWS V14.01,2013-03-14 14:40:00,
2013-03-14 09:44:00,56.8,51.7,30.37,SSE,157,0.0,4.0,83,0.00,,SKC,0.00,VWS V14.01,2013-03-14 14:44:00,
2013-03-14 09:49:00,57.3,52.2,30.37,SSE,157,0.0,1.0,83,0.00,,SKC,0.00,VWS V14.01,2013-03-14 14:49:00,
2013-03-14 09:50:00,57.0,51.9,30.37,SSE,157,0.0,4.0,83,0.00,,SKC,0.00,VWS V14.01,2013-03-14 14:50:00,
2013-03-14 09:54:00,57.8,52.3,30.37,SSE,157,4.0,4.0,82,0.00,,SKC,0.00,VWS V14.01,2013-03-14 14:54:00,
2013-03-14 09:59:00,58.3,52.5,30.37,SSE,157,0.0,5.0,81,0.00,,SKC,0.00,VWS V14.01,2013-03-14 14:59:00,
2013-03-14 10:00:00,58.0,52.5,30.37,SSE,157,0.0,4.0,82,0.00,,SKC,0.00,VWS V14.01,2013-03-14 15:00:00,
2013-03-14 10:04:00,58.9,53.4,30.37,SSE,157,0.0,5.0,82,0.00,,SKC,0.00,VWS V14.01,2013-03-14 15:04:00,
2013-03-14 10:09:00,59.5,54.0,30.37,SSE,157,0.0,5.0,82,0.00,,SKC,0.00,VWS V14.01,2013-03-14 15:09:00,
2013-03-14 10:10:00,59.1,53.3,30.37,SSE,157,0.0,5.0,81,0.00,,SKC,0.00,VWS V14.01,2013-03-14 15:10:00,
2013-03-14 10:14:00,60.2,54.0,30.37,SSE,157,0.0,5.0,80,0.00,,SKC,0.00,VWS V14.01,2013-03-14 15:14:00,
2013-03-14 10:19:00,60.9,54.7,30.37,SSE,159,0.0,8.0,80,0.00,,SKC,0.00,VWS V14.01,2013-03-14 15:19:00,
2013-03-14 10:20:00,60.5,54.3,30.37,SSE,157,2.0,5.0,80,0.00,,SKC,0.00,VWS V14.01,2013-03-14 15:20:00,
2013-03-14 10:24:00,61.7,55.1,30.37,SSE,160,0.0,8.0,79,0.00,,SKC,0.00,VWS V14.01,2013-03-14 15:24:00,
2013-03-14 10:29:00,62.2,55.3,30.37,SSE,161,1.0,7.0,78,0.00,,SKC,0.00,VWS V14.01,2013-03-14 15:29:00,
2013-03-14 10:30:00,61.9,55.0,30.37,SSE,161,0.0,8.0,78,0.00,,SKC,0.00,VWS V14.01,2013-03-14 15:30:00,
2013-03-14 10:34:00,62.7,55.0,30.37,SSE,164,0.0,7.0,76,0.00,,SKC,0.00,VWS V14.01,2013-03-14 15:34:00,
2013-03-14 10:39:00,63.4,55.7,30.37,SSE,165,2.0,6.0,76,0.00,,SKC,0.00,VWS V14.01,2013-03-14 15:39:00,
2013-03-14 10:40:00,63.0,55.7,30.37,SSE,165,0.0,7.0,77,0.00,,SKC,0.00,VWS V14.01,2013-03-14 15:40:00,
2013-03-14 10:44:00,63.9,55.5,30.37,South,188,8.0,12.0,74,0.00,,SKC,0.00,VWS V14.01,2013-03-14 15:44:00,
2013-03-14 10:49:00,64.3,55.1,30.37,South,180,3.0,9.0,72,0.00,,SKC,0.00,VWS V14.01,2013-03-14 15:49:00,
2013-03-14 10:50:00,64.1,55.3,30.37,South,184,4.0,12.0,73,0.00,,SKC,0.00,VWS V14.01,2013-03-14 15:50:00,
2013-03-14 10:54:00,64.6,55.0,30.37,SSW,200,7.0,12.0,71,0.00,,SKC,0.00,VWS V14.01,2013-03-14 15:54:00,
2013-03-14 10:59:00,64.7,55.1,30.37,SSW,200,6.0,8.0,71,0.00,,SKC,0.00,VWS V14.01,2013-03-14 15:59:00,
2013-03-14 11:00:00,64.6,55.0,30.37,SSW,197,4.0,12.0,71,0.00,,SKC,0.00,VWS V14.01,2013-03-14 16:00:00,
2013-03-14 11:04:00,65.0,55.4,30.37,South,186,2.0,8.0,71,0.00,,SKC,0.00,VWS V14.01,2013-03-14 16:04:00,
2013-03-14 11:09:00,65.3,54.9,30.37,SSW,211,4.0,11.0,69,0.00,,SKC,0.00,VWS V14.01,2013-03-14 16:09:00,
2013-03-14 11:10:00,65.1,55.1,30.37,SSW,201,4.0,8.0,70,0.00,,SKC,0.00,VWS V14.01,2013-03-14 16:10:00,
2013-03-14 11:14:00,65.6,54.8,30.38,SSW,201,4.0,13.0,68,0.00,,SKC,0.00,VWS V14.01,2013-03-14 16:14:00,
2013-03-14 11:19:00,65.8,55.0,30.38,SSW,192,4.0,9.0,68,0.00,,SKC,0.00,VWS V14.01,2013-03-14 16:19:00,
2013-03-14 11:20:00,65.7,54.5,30.38,South,174,6.0,13.0,67,0.00,,SKC,0.00,VWS V14.01,2013-03-14 16:20:00,
2013-03-14 11:24:00,65.8,54.5,30.37,SSW,194,2.0,9.0,67,0.00,,SKC,0.00,VWS V14.01,2013-03-14 16:24:00,
2013-03-14 11:29:00,65.8,55.0,30.37,SSW,198,0.0,5.0,68,0.00,,SKC,0.00,VWS V14.01,2013-03-14 16:29:00,
2013-03-14 11:30:00,65.7,54.5,30.37,SSW,198,1.0,9.0,67,0.00,,SKC,0.00,VWS V14.01,2013-03-14 16:30:00,
2013-03-14 11:34:00,66.5,55.6,30.37,SSW,205,2.0,10.0,68,0.00,,SKC,0.00,VWS V14.01,2013-03-14 16:34:00,
2013-03-14 11:39:00,67.1,55.4,30.37,SSW,205,5.0,8.0,66,0.00,,SKC,0.00,VWS V14.01,2013-03-14 16:39:00,
2013-03-14 11:40:00,66.8,55.5,30.37,SSW,207,5.0,10.0,67,0.00,,SKC,0.00,VWS V14.01,2013-03-14 16:40:00,
2013-03-14 11:44:00,67.6,55.4,30.37,SSW,210,1.0,10.0,65,0.00,,SKC,0.00,VWS V14.01,2013-03-14 16:44:00,
2013-03-14 11:49:00,68.1,55.0,30.37,SW,217,3.0,11.0,63,0.00,,SKC,0.00,VWS V14.01,2013-03-14 16:49:00,
2013-03-14 11:50:00,67.9,55.3,30.37,SW,218,2.0,10.0,64,0.00,,SKC,0.00,VWS V14.01,2013-03-14 16:50:00,
2013-03-14 11:54:00,68.5,53.6,30.37,SSW,205,4.0,11.0,59,0.00,,SKC,0.00,VWS V14.01,2013-03-14 16:54:00,
2013-03-14 11:59:00,68.9,53.1,30.36,South,169,2.0,9.0,57,0.00,,SKC,0.00,VWS V14.01,2013-03-14 16:59:00,
2013-03-14 12:00:00,68.7,53.8,30.36,South,171,6.0,11.0,59,0.00,,SKC,0.00,VWS V14.01,2013-03-14 17:00:00,
2013-03-14 12:04:00,69.3,53.4,30.36,SW,226,4.0,10.0,57,0.00,,SKC,0.00,VWS V14.01,2013-03-14 17:04:00,
2013-03-14 12:09:00,69.9,53.5,30.36,SW,216,1.0,11.0,56,0.00,,SKC,0.00,VWS V14.01,2013-03-14 17:09:00,
2013-03-14 12:10:00,69.6,54.2,30.36,SW,221,0.0,10.0,58,0.00,,SKC,0.00,VWS V14.01,2013-03-14 17:10:00,
2013-03-14 12:14:00,70.1,53.7,30.36,SSW,205,0.0,11.0,56,0.00,,SKC,0.00,VWS V14.01,2013-03-14 17:14:00,
2013-03-14 12:19:00,70.3,54.4,30.36,SSW,199,0.0,7.0,57,0.00,,SKC,0.00,VWS V14.01,2013-03-14 17:19:00,
2013-03-14 12:20:00,70.2,54.3,30.36,SW,217,4.0,11.0,57,0.00,,SKC,0.00,VWS V14.01,2013-03-14 17:20:00,
2013-03-14 12:24:00,70.7,54.2,30.35,SSW,208,0.0,7.0,56,0.00,,SKC,0.00,VWS V14.01,2013-03-14 17:24:00,
2013-03-14 12:29:00,71.1,52.6,30.35,South,188,0.0,9.0,52,0.00,,SKC,0.00,VWS V14.01,2013-03-14 17:29:00,
2013-03-14 12:30:00,70.8,52.3,30.35,SSW,202,0.0,7.0,52,0.00,,SKC,0.00,VWS V14.01,2013-03-14 17:30:00,
2013-03-14 12:34:00,71.7,54.2,30.35,SSW,200,0.0,9.0,54,0.00,,SKC,0.00,VWS V14.01,2013-03-14 17:34:00,
2013-03-14 12:39:00,72.1,53.0,30.35,SSE,161,0.0,9.0,51,0.00,,SKC,0.00,VWS V14.01,2013-03-14 17:39:00,
2013-03-14 12:40:00,71.9,54.4,30.35,SSW,198,3.0,9.0,54,0.00,,SKC,0.00,VWS V14.01,2013-03-14 17:40:00,
2013-03-14 12:44:00,72.5,53.4,30.35,SSW,202,0.0,9.0,51,0.00,,SKC,0.00,VWS V14.01,2013-03-14 17:44:00,
2013-03-14 12:49:00,72.8,53.6,30.35,SSW,211,2.0,10.0,51,0.00,,SKC,0.00,VWS V14.01,2013-03-14 17:49:00,
2013-03-14 12:50:00,72.7,53.5,30.35,SSW,200,0.0,9.0,51,0.00,,SKC,0.00,VWS V14.01,2013-03-14 17:50:00,
2013-03-14 12:54:00,73.1,52.3,30.34,South,189,0.0,10.0,48,0.00,,SKC,0.00,VWS V14.01,2013-03-14 17:54:00,
2013-03-14 12:59:00,73.4,52.0,30.34,South,190,7.0,7.0,47,0.00,,SKC,0.00,VWS V14.01,2013-03-14 17:59:00,
2013-03-14 13:00:00,73.2,52.9,30.34,South,188,0.0,10.0,49,0.00,,SKC,0.00,VWS V14.01,2013-03-14 18:00:00,
2013-03-14 13:04:00,73.7,52.2,30.34,South,180,0.0,7.0,47,0.00,,SKC,0.00,VWS V14.01,2013-03-14 18:04:00,
2013-03-14 13:09:00,73.7,52.2,30.33,South,190,0.0,5.0,47,0.00,,SKC,0.00,VWS V14.01,2013-03-14 18:09:00,
2013-03-14 13:10:00,73.6,51.6,30.34,South,190,3.0,8.0,46,0.00,,SKC,0.00,VWS V14.01,2013-03-14 18:10:00,
2013-03-14 13:14:00,74.1,52.0,30.33,South,175,0.0,8.0,46,0.00,,SKC,0.00,VWS V14.01,2013-03-14 18:14:00,
2013-03-14 13:19:00,74.5,53.0,30.33,South,178,4.0,6.0,47,0.00,,SKC,0.00,VWS V14.01,2013-03-14 18:19:00,
2013-03-14 13:20:00,74.3,52.8,30.33,South,175,3.0,8.0,47,0.00,,SKC,0.00,VWS V14.01,2013-03-14 18:20:00,
2013-03-14 13:24:00,74.7,52.6,30.32,SSE,167,0.0,11.0,46,0.00,,SKC,0.00,VWS V14.01,2013-03-14 18:24:00,
2013-03-14 13:29:00,74.6,52.5,30.32,South,181,7.0,7.0,46,0.00,,SKC,0.00,VWS V14.01,2013-03-14 18:29:00,
2013-03-14 13:30:00,74.7,52.0,30.32,South,184,4.0,11.0,45,0.00,,SKC,0.00,VWS V14.01,2013-03-14 18:30:00,
2013-03-14 13:34:00,74.7,52.0,30.32,South,173,8.0,11.0,45,0.00,,SKC,0.00,VWS V14.01,2013-03-14 18:34:00,
2013-03-14 13:39:00,75.2,51.8,30.31,SSE,164,1.0,6.0,44,0.00,,SKC,0.00,VWS V14.01,2013-03-14 18:39:00,
2013-03-14 13:40:00,74.9,51.5,30.32,SSE,163,2.0,11.0,44,0.00,,SKC,0.00,VWS V14.01,2013-03-14 18:40:00,
2013-03-14 13:44:00,75.5,52.1,30.31,SSE,165,5.0,6.0,44,0.00,,SKC,0.00,VWS V14.01,2013-03-14 18:44:00,
2013-03-14 13:49:00,75.7,51.6,30.31,SSE,161,0.0,3.0,43,0.00,,SKC,0.00,VWS V14.01,2013-03-14 18:49:00,
2013-03-14 13:50:00,75.6,51.5,30.31,SSE,161,1.0,10.0,43,0.00,,SKC,0.00,VWS V14.01,2013-03-14 18:50:00,
2013-03-14 13:54:00,76.0,51.3,30.31,SSE,167,5.0,8.0,42,0.00,,SKC,0.00,VWS V14.01,2013-03-14 18:54:00,
2013-03-14 13:59:00,76.2,51.5,30.31,SSE,161,0.0,7.0,42,0.00,,SKC,0.00,VWS V14.01,2013-03-14 18:59:00,
2013-03-14 14:00:00,76.1,51.4,30.31,SSE,160,3.0,12.0,42,0.00,,SKC,0.00,VWS V14.01,2013-03-14 19:00:00,
2013-03-14 14:04:00,76.4,51.0,30.30,South,169,1.0,7.0,41,0.00,,SKC,0.00,VWS V14.01,2013-03-14 19:04:00,
2013-03-14 14:09:00,76.5,50.4,30.30,SSE,167,5.0,11.0,40,0.00,,SKC,0.00,VWS V14.01,2013-03-14 19:09:00,
2013-03-14 14:10:00,76.5,50.4,30.30,SSE,152,11.0,13.0,40,0.00,,SKC,0.00,VWS V14.01,2013-03-14 19:10:00,
2013-03-14 14:14:00,76.6,51.2,30.29,SSE,157,0.0,11.0,41,0.00,,SKC,0.00,VWS V14.01,2013-03-14 19:14:00,
2013-03-14 14:19:00,76.7,50.6,30.29,SSW,199,5.0,8.0,40,0.00,,SKC,0.00,VWS V14.01,2013-03-14 19:19:00,
2013-03-14 14:20:00,76.6,51.2,30.29,South,175,0.0,11.0,41,0.00,,SKC,0.00,VWS V14.01,2013-03-14 19:20:00,
2013-03-14 14:24:00,76.7,50.6,30.28,SSW,196,3.0,11.0,40,0.00,,SKC,0.00,VWS V14.01,2013-03-14 19:24:00,
2013-03-14 14:29:00,76.9,49.4,30.28,South,182,0.0,8.0,38,0.00,,SKC,0.00,VWS V14.01,2013-03-14 19:29:00,
2013-03-14 14:30:00,76.8,50.7,30.28,SSW,196,7.0,11.0,40,0.00,,SKC,0.00,VWS V14.01,2013-03-14 19:30:00,
2013-03-14 14:34:00,77.1,50.3,30.28,South,176,0.0,8.0,39,0.00,,SKC,0.00,VWS V14.01,2013-03-14 19:34:00,
2013-03-14 14:39:00,76.9,47.2,30.28,SW,219,7.0,12.0,35,0.00,,SKC,0.00,VWS V14.01,2013-03-14 19:39:00,
2013-03-14 14:40:00,77.0,49.5,30.28,SW,222,3.0,12.0,38,0.00,,SKC,0.00,VWS V14.01,2013-03-14 19:40:00,
2013-03-14 14:44:00,76.9,48.7,30.28,SSW,196,3.0,12.0,37,0.00,,SKC,0.00,VWS V14.01,2013-03-14 19:44:00,
2013-03-14 14:49:00,77.3,49.0,30.27,South,183,3.0,9.0,37,0.00,,SKC,0.00,VWS V14.01,2013-03-14 19:49:00,
2013-03-14 14:50:00,77.1,49.6,30.28,SSW,198,1.0,12.0,38,0.00,,SKC,0.00,VWS V14.01,2013-03-14 19:50:00,
2013-03-14 14:54:00,77.8,49.5,30.27,South,185,0.0,9.0,37,0.00,,SKC,0.00,VWS V14.01,2013-03-14 19:54:00,
2013-03-14 14:59:00,78.0,48.2,30.26,SSW,194,0.0,6.0,35,0.00,,SKC,0.00,VWS V14.01,2013-03-14 19:59:00,
2013-03-14 15:00:00,77.9,50.3,30.27,SSW,194,0.0,9.0,38,0.00,,SKC,0.00,VWS V14.01,2013-03-14 20:00:00,
2013-03-14 15:04:00,78.1,49.0,30.26,South,170,8.0,12.0,36,0.00,,SKC,0.00,VWS V14.01,2013-03-14 20:04:00,
2013-03-14 15:09:00,78.2,49.1,30.26,SSW,202,2.0,8.0,36,0.00,,SKC,0.00,VWS V14.01,2013-03-14 20:09:00,
2013-03-14 15:10:00,78.1,49.0,30.26,SSW,198,8.0,12.0,36,0.00,,SKC,0.00,VWS V14.01,2013-03-14 20:10:00,
2013-03-14 15:14:00,78.3,49.2,30.25,SSW,206,0.0,8.0,36,0.00,,SKC,0.00,VWS V14.01,2013-03-14 20:14:00,
2013-03-14 15:19:00,78.6,47.9,30.25,South,171,3.0,10.0,34,0.00,,SKC,0.00,VWS V14.01,2013-03-14 20:19:00,
2013-03-14 15:20:00,78.4,49.3,30.25,SSE,155,10.0,10.0,36,0.00,,SKC,0.00,VWS V14.01,2013-03-14 20:20:00,
2013-03-14 15:24:00,78.8,47.3,30.25,South,179,2.0,10.0,33,0.00,,SKC,0.00,VWS V14.01,2013-03-14 20:24:00,
2013-03-14 15:29:00,78.9,47.4,30.25,SSW,212,10.0,10.0,33,0.00,,SKC,0.00,VWS V14.01,2013-03-14 20:29:00,
2013-03-14 15:30:00,78.8,47.3,30.25,SW,223,6.0,11.0,33,0.00,,SKC,0.00,VWS V14.01,2013-03-14 20:30:00,
2013-03-14 15:34:00,78.9,47.4,30.25,SSW,198,4.0,10.0,33,0.00,,SKC,0.00,VWS V14.01,2013-03-14 20:34:00,
2013-03-14 15:39:00,78.7,47.2,30.25,SSW,208,1.0,4.0,33,0.00,,SKC,0.00,VWS V14.01,2013-03-14 20:39:00,
2013-03-14 15:40:00,78.9,47.4,30.25,SSW,209,1.0,10.0,33,0.00,,SKC,0.00,VWS V14.01,2013-03-14 20:40:00,
2013-03-14 15:44:00,79.1,47.6,30.24,SSW,205,2.0,8.0,33,0.00,,SKC,0.00,VWS V14.01,2013-03-14 20:44:00,
2013-03-14 15:49:00,79.2,46.8,30.24,SW,236,4.0,12.0,32,0.00,,SKC,0.00,VWS V14.01,2013-03-14 20:49:00,
2013-03-14 15:50:00,79.2,47.7,30.24,SSW,213,0.0,11.0,33,0.00,,SKC,0.00,VWS V14.01,2013-03-14 20:50:00,
2013-03-14 15:54:00,79.2,46.0,30.24,SSW,210,7.0,12.0,31,0.00,,SKC,0.00,VWS V14.01,2013-03-14 20:54:00,
2013-03-14 15:59:00,79.1,45.9,30.23,SSW,211,3.0,11.0,31,0.00,,SKC,0.00,VWS V14.01,2013-03-14 20:59:00,
2013-03-14 16:00:00,79.2,46.8,30.24,South,188,1.0,13.0,32,0.00,,SKC,0.00,VWS V14.01,2013-03-14 21:00:00,
2013-03-14 16:04:00,79.2,46.8,30.23,SSW,210,0.0,11.0,32,0.00,,SKC,0.00,VWS V14.01,2013-03-14 21:04:00,
2013-03-14 16:09:00,79.2,46.8,30.23,SSW,205,2.0,8.0,32,0.00,,SKC,0.00,VWS V14.01,2013-03-14 21:09:00,
2013-03-14 16:10:00,79.3,46.9,30.23,SSW,213,7.0,11.0,32,0.00,,SKC,0.00,VWS V14.01,2013-03-14 21:10:00,
2013-03-14 16:14:00,79.3,46.9,30.23,SSE,157,7.0,10.0,32,0.00,,SKC,0.00,VWS V14.01,2013-03-14 21:14:00,
2013-03-14 16:19:00,79.4,46.2,30.23,SW,217,5.0,11.0,31,0.00,,SKC,0.00,VWS V14.01,2013-03-14 21:19:00,
2013-03-14 16:20:00,79.4,46.2,30.23,SSE,158,2.0,10.0,31,0.00,,SKC,0.00,VWS V14.01,2013-03-14 21:20:00,
2013-03-14 16:24:00,79.5,47.1,30.23,SW,214,4.0,13.0,32,0.00,,SKC,0.00,VWS V14.01,2013-03-14 21:24:00,
2013-03-14 16:29:00,79.8,47.3,30.22,South,184,0.0,8.0,32,0.00,,SKC,0.00,VWS V14.01,2013-03-14 21:29:00,
2013-03-14 16:30:00,79.6,48.0,30.22,SSW,213,3.0,13.0,33,0.00,,SKC,0.00,VWS V14.01,2013-03-14 21:30:00,
2013-03-14 16:34:00,80.0,47.5,30.22,SSW,192,0.0,8.0,32,0.00,,SKC,0.00,VWS V14.01,2013-03-14 21:34:00,
2013-03-14 16:39:00,80.1,47.6,30.22,South,186,6.0,7.0,32,0.00,,SKC,0.00,VWS V14.01,2013-03-14 21:39:00,
2013-03-14 16:40:00,80.1,47.6,30.22,South,188,0.0,8.0,32,0.00,,SKC,0.00,VWS V14.01,2013-03-14 21:40:00,
2013-03-14 16:44:00,80.2,46.9,30.22,South,170,0.0,9.0,31,0.00,,SKC,0.00,VWS V14.01,2013-03-14 21:44:00,
2013-03-14 16:49:00,80.3,46.9,30.22,SW,215,3.0,7.0,31,0.00,,SKC,0.00,VWS V14.01,2013-03-14 21:49:00,
2013-03-14 16:50:00,80.2,46.8,30.22,SSW,213,4.0,13.0,31,0.00,,SKC,0.00,VWS V14.01,2013-03-14 21:50:00,
2013-03-14 16:54:00,80.4,47.0,30.22,South,189,1.0,7.0,31,0.00,,SKC,0.00,VWS V14.01,2013-03-14 21:54:00,
2013-03-14 16:59:00,80.3,46.1,30.22,SSE,165,6.0,10.0,30,0.00,,SKC,0.00,VWS V14.01,2013-03-14 21:59:00,
2013-03-14 17:00:00,80.4,46.2,30.22,South,181,0.0,7.0,30,0.00,,SKC,0.00,VWS V14.01,2013-03-14 22:00:00,
2013-03-14 17:04:00,80.2,45.1,30.22,SSE,154,0.0,10.0,29,0.00,,SKC,0.00,VWS V14.01,2013-03-14 22:04:00,
2013-03-14 17:09:00,80.0,45.8,30.22,SSE,162,4.0,11.0,30,0.00,,SKC,0.00,VWS V14.01,2013-03-14 22:09:00,
2013-03-14 17:10:00,80.1,45.9,30.22,SSE,158,0.0,10.0,30,0.00,,SKC,0.00,VWS V14.01,2013-03-14 22:10:00,
2013-03-14 17:14:00,79.7,46.4,30.22,SSE,158,0.0,11.0,31,0.00,,SKC,0.00,VWS V14.01,2013-03-14 22:14:00,
2013-03-14 17:19:00,79.7,45.6,30.22,SSE,168,2.0,10.0,30,0.00,,SKC,0.00,VWS V14.01,2013-03-14 22:19:00,
2013-03-14 17:20:00,79.7,46.4,30.22,SSE,159,2.0,11.0,31,0.00,,SKC,0.00,VWS V14.01,2013-03-14 22:20:00,
2013-03-14 17:24:00,79.6,45.5,30.21,SSE,150,0.0,12.0,30,0.00,,SKC,0.00,VWS V14.01,2013-03-14 22:24:00,
2013-03-14 17:29:00,79.7,46.4,30.21,SSE,163,0.0,7.0,31,0.00,,SKC,0.00,VWS V14.01,2013-03-14 22:29:00,
2013-03-14 17:30:00,79.6,45.5,30.21,SSE,158,0.0,12.0,30,0.00,,SKC,0.00,VWS V14.01,2013-03-14 22:30:00,
2013-03-14 17:34:00,79.8,45.6,30.21,SSE,163,2.0,7.0,30,0.00,,SKC,0.00,VWS V14.01,2013-03-14 22:34:00,
2013-03-14 17:39:00,79.9,46.6,30.21,SSE,165,1.0,6.0,31,0.00,,SKC,0.00,VWS V14.01,2013-03-14 22:39:00,
2013-03-14 17:40:00,79.8,46.5,30.21,SSE,161,0.0,7.0,31,0.00,,SKC,0.00,VWS V14.01,2013-03-14 22:40:00,
2013-03-14 17:44:00,80.0,46.7,30.21,SSE,153,0.0,9.0,31,0.00,,SKC,0.00,VWS V14.01,2013-03-14 22:44:00,
2013-03-14 17:49:00,79.9,46.6,30.21,SSE,157,0.0,7.0,31,0.00,,SKC,0.00,VWS V14.01,2013-03-14 22:49:00,
2013-03-14 17:50:00,80.0,46.7,30.21,SSE,155,7.0,9.0,31,0.00,,SKC,0.00,VWS V14.01,2013-03-14 22:50:00,
2013-03-14 17:54:00,79.9,45.7,30.21,SSE,164,6.0,9.0,30,0.00,,SKC,0.00,VWS V14.01,2013-03-14 22:54:00,
2013-03-14 17:59:00,79.9,45.7,30.20,SSE,165,0.0,4.0,30,0.00,,SKC,0.00,VWS V14.01,2013-03-14 22:59:00,
2013-03-14 18:00:00,80.0,45.8,30.20,SSE,163,0.0,9.0,30,0.00,,SKC,0.00,VWS V14.01,2013-03-14 23:00:00,
2013-03-14 18:04:00,79.8,45.6,30.20,South,170,1.0,7.0,30,0.00,,SKC,0.00,VWS V14.01,2013-03-14 23:04:00,
2013-03-14 18:09:00,79.7,45.6,30.20,SSE,161,0.0,2.0,30,0.00,,SKC,0.00,VWS V14.01,2013-03-14 23:09:00,
2013-03-14 18:10:00,79.8,45.6,30.20,SSE,159,0.0,7.0,30,0.00,,SKC,0.00,VWS V14.01,2013-03-14 23:10:00,
2013-03-14 18:14:00,79.4,46.2,30.20,SSE,167,0.0,4.0,31,0.00,,SKC,0.00,VWS V14.01,2013-03-14 23:14:00,
2013-03-14 18:19:00,79.0,45.8,30.20,South,173,0.0,3.0,31,0.00,,SKC,0.00,VWS V14.01,2013-03-14 23:19:00,
2013-03-14 18:20:00,79.3,46.1,30.20,South,173,0.0,7.0,31,0.00,,SKC,0.00,VWS V14.01,2013-03-14 23:20:00,
2013-03-14 18:24:00,78.7,46.4,30.20,South,173,0.0,3.0,32,0.00,,SKC,0.00,VWS V14.01,2013-03-14 23:24:00,
2013-03-14 18:29:00,78.5,46.2,30.20,South,174,0.0,5.0,32,0.00,,SKC,0.00,VWS V14.01,2013-03-14 23:29:00,
2013-03-14 18:30:00,78.6,46.3,30.20,South,173,1.0,3.0,32,0.00,,SKC,0.00,VWS V14.01,2013-03-14 23:30:00,
2013-03-14 18:34:00,78.1,45.9,30.20,SSE,163,0.0,12.0,32,0.00,,SKC,0.00,VWS V14.01,2013-03-14 23:34:00,
2013-03-14 18:39:00,77.6,45.4,30.20,SSE,156,0.0,8.0,32,0.00,,SKC,0.00,VWS V14.01,2013-03-14 23:39:00,
2013-03-14 18:40:00,77.8,45.6,30.20,SSE,164,0.0,12.0,32,0.00,,SKC,0.00,VWS V14.01,2013-03-14 23:40:00,
2013-03-14 18:44:00,77.3,46.0,30.20,South,172,0.0,8.0,33,0.00,,SKC,0.00,VWS V14.01,2013-03-14 23:44:00,
2013-03-14 18:49:00,76.9,45.6,30.20,South,175,2.0,7.0,33,0.00,,SKC,0.00,VWS V14.01,2013-03-14 23:49:00,
2013-03-14 18:50:00,77.1,45.8,30.20,South,177,1.0,8.0,33,0.00,,SKC,0.00,VWS V14.01,2013-03-14 23:50:00,
2013-03-14 18:54:00,76.6,45.4,30.20,South,177,0.0,7.0,33,0.00,,SKC,0.00,VWS V14.01,2013-03-14 23:54:00,
2013-03-14 18:59:00,76.4,45.2,30.20,South,174,4.0,4.0,33,0.00,,SKC,0.00,VWS V14.01,2013-03-14 23:59:00,
2013-03-14 19:00:00,76.5,45.3,30.20,South,176,0.0,7.0,33,0.00,,SKC,0.00,VWS V14.01,2013-03-15 00:00:00,
2013-03-14 19:04:00,76.1,44.1,30.20,SSE,168,0.0,7.0,32,0.00,,SKC,0.00,VWS V14.01,2013-03-15 00:04:00,
2013-03-14 19:09:00,75.9,44.8,30.20,SSE,167,3.0,8.0,33,0.00,,SKC,0.00,VWS V14.01,2013-03-15 00:09:00,
2013-03-14 19:10:00,76.0,44.8,30.20,SSE,168,0.0,7.0,33,0.00,,SKC,0.00,VWS V14.01,2013-03-15 00:10:00,
2013-03-14 19:14:00,75.7,45.4,30.20,SSE,166,0.0,8.0,34,0.00,,SKC,0.00,VWS V14.01,2013-03-15 00:14:00,
2013-03-14 19:19:00,75.5,45.2,30.20,SSE,166,0.0,2.0,34,0.00,,SKC,0.00,VWS V14.01,2013-03-15 00:19:00,
2013-03-14 19:20:00,75.6,45.3,30.20,SSE,166,0.0,8.0,34,0.00,,SKC,0.00,VWS V14.01,2013-03-15 00:20:00,
2013-03-14 19:24:00,75.2,45.7,30.20,SSE,167,0.0,7.0,35,0.00,,SKC,0.00,VWS V14.01,2013-03-15 00:24:00,
2013-03-14 19:29:00,74.9,44.7,30.20,SSE,165,0.0,8.0,34,0.00,,SKC,0.00,VWS V14.01,2013-03-15 00:29:00,
2013-03-14 19:30:00,75.1,45.6,30.20,SSE,167,0.0,7.0,35,0.00,,SKC,0.00,VWS V14.01,2013-03-15 00:30:00,
2013-03-14 19:34:00,74.5,44.3,30.20,SSE,164,0.0,8.0,34,0.00,,SKC,0.00,VWS V14.01,2013-03-15 00:34:00,
2013-03-14 19:39:00,74.2,44.1,30.20,SSE,164,0.0,0.0,34,0.00,,SKC,0.00,VWS V14.01,2013-03-15 00:39:00,
2013-03-14 19:40:00,74.4,44.2,30.20,SSE,164,0.0,8.0,34,0.00,,SKC,0.00,VWS V14.01,2013-03-15 00:40:00,
2013-03-14 19:44:00,73.8,44.5,30.20,SSE,164,0.0,1.0,35,0.00,,SKC,0.00,VWS V14.01,2013-03-15 00:44:00,
2013-03-14 19:49:00,73.4,44.1,30.20,SSE,164,0.0,0.0,35,0.00,,SKC,0.00,VWS V14.01,2013-03-15 00:49:00,
2013-03-14 19:50:00,73.7,44.4,30.20,SSE,164,0.0,1.0,35,0.00,,SKC,0.00,VWS V14.01,2013-03-15 00:50:00,
2013-03-14 19:54:00,73.0,43.8,30.20,SSE,164,0.0,0.0,35,0.00,,SKC,0.00,VWS V14.01,2013-03-15 00:54:00,
2013-03-14 19:59:00,72.7,44.2,30.20,SSE,164,0.0,0.0,36,0.00,,SKC,0.00,VWS V14.01,2013-03-15 00:59:00,
2013-03-14 20:00:00,72.9,44.4,30.20,SSE,164,0.0,0.0,36,0.00,,SKC,0.00,VWS V14.01,2013-03-15 01:00:00,
2013-03-14 20:04:00,72.3,44.6,30.20,SSE,164,0.0,3.0,37,0.00,,SKC,0.00,VWS V14.01,2013-03-15 01:04:00,
2013-03-14 20:09:00,71.9,44.9,30.20,SSE,164,0.0,4.0,38,0.00,,SKC,0.00,VWS V14.01,2013-03-15 01:09:00,
2013-03-14 20:10:00,72.1,44.4,30.20,SSE,164,0.0,3.0,37,0.00,,SKC,0.00,VWS V14.01,2013-03-15 01:10:00,
2013-03-14 20:14:00,71.6,46.7,30.20,SSE,164,0.0,4.0,41,0.00,,SKC,0.00,VWS V14.01,2013-03-15 01:14:00,
2013-03-14 20:19:00,71.2,47.6,30.20,SSE,164,0.0,0.0,43,0.00,,SKC,0.00,VWS V14.01,2013-03-15 01:19:00,
2013-03-14 20:20:00,71.4,47.1,30.20,SSE,164,0.0,4.0,42,0.00,,SKC,0.00,VWS V14.01,2013-03-15 01:20:00,
2013-03-14 20:24:00,70.8,47.8,30.20,SSE,164,0.0,0.0,44,0.00,,SKC,0.00,VWS V14.01,2013-03-15 01:24:00,
2013-03-14 20:29:00,70.5,48.2,30.20,SSE,164,0.0,0.0,45,0.00,,SKC,0.00,VWS V14.01,2013-03-15 01:29:00,
2013-03-14 20:30:00,70.7,47.7,30.20,SSE,164,0.0,0.0,44,0.00,,SKC,0.00,VWS V14.01,2013-03-15 01:30:00,
2013-03-14 20:34:00,70.1,49.0,30.21,SSE,163,0.0,12.0,47,0.00,,SKC,0.00,VWS V14.01,2013-03-15 01:34:00,
2013-03-14 20:39:00,69.8,49.8,30.21,SSE,164,0.0,5.0,49,0.00,,SKC,0.00,VWS V14.01,2013-03-15 01:39:00,
2013-03-14 20:40:00,69.9,49.3,30.21,SSE,163,0.0,12.0,48,0.00,,SKC,0.00,VWS V14.01,2013-03-15 01:40:00,
2013-03-14 20:44:00,69.5,50.6,30.21,SSE,166,0.0,7.0,51,0.00,,SKC,0.00,VWS V14.01,2013-03-15 01:44:00,
2013-03-14 20:49:00,69.3,51.5,30.21,SSE,163,0.0,5.0,53,0.00,,SKC,0.00,VWS V14.01,2013-03-15 01:49:00,
2013-03-14 20:50:00,69.4,51.0,30.21,SSE,165,0.0,7.0,52,0.00,,SKC,0.00,VWS V14.01,2013-03-15 01:50:00,
2013-03-14 20:54:00,69.0,51.2,30.21,SSE,163,0.0,11.0,53,0.00,,SKC,0.00,VWS V14.01,2013-03-15 01:54:00,
2013-03-14 20:59:00,68.8,51.5,30.22,SSE,165,0.0,8.0,54,0.00,,SKC,0.00,VWS V14.01,2013-03-15 01:59:00,
2013-03-14 21:00:00,68.9,51.6,30.21,SSE,164,0.0,11.0,54,0.00,,SKC,0.00,VWS V14.01,2013-03-15 02:00:00,
2013-03-14 21:04:00,68.5,51.7,30.22,SSE,165,0.0,8.0,55,0.00,,SKC,0.00,VWS V14.01,2013-03-15 02:04:00,
2013-03-14 21:09:00,68.2,51.4,30.22,SSE,164,0.0,4.0,55,0.00,,SKC,0.00,VWS V14.01,2013-03-15 02:09:00,
2013-03-14 21:10:00,68.3,51.5,30.22,SSE,165,0.0,8.0,55,0.00,,SKC,0.00,VWS V14.01,2013-03-15 02:10:00,
2013-03-14 21:14:00,67.9,51.6,30.22,SSE,163,0.0,4.0,56,0.00,,SKC,0.00,VWS V14.01,2013-03-15 02:14:00,
2013-03-14 21:19:00,67.6,51.8,30.22,SSE,162,0.0,8.0,57,0.00,,SKC,0.00,VWS V14.01,2013-03-15 02:19:00,
2013-03-14 21:20:00,67.7,51.9,30.23,SSE,163,0.0,5.0,57,0.00,,SKC,0.00,VWS V14.01,2013-03-15 02:20:00,
2013-03-14 21:24:00,67.3,52.0,30.23,SSE,161,0.0,9.0,58,0.00,,SKC,0.00,VWS V14.01,2013-03-15 02:24:00,
2013-03-14 21:29:00,67.1,52.3,30.23,SSE,161,0.0,10.0,59,0.00,,SKC,0.00,VWS V14.01,2013-03-15 02:29:00,
2013-03-14 21:30:00,67.2,52.4,30.23,SSE,161,0.0,9.0,59,0.00,,SKC,0.00,VWS V14.01,2013-03-15 02:30:00,
2013-03-14 21:34:00,66.8,52.5,30.23,SSE,162,7.0,10.0,60,0.00,,SKC,0.00,VWS V14.01,2013-03-15 02:34:00,
2013-03-14 21:39:00,66.6,52.8,30.23,SSE,161,0.0,7.0,61,0.00,,SKC,0.00,VWS V14.01,2013-03-15 02:39:00,
2013-03-14 21:40:00,66.7,52.8,30.23,SSE,163,6.0,10.0,61,0.00,,SKC,0.00,VWS V14.01,2013-03-15 02:40:00,
2013-03-14 21:44:00,66.3,52.9,30.23,SSE,159,0.0,8.0,62,0.00,,SKC,0.00,VWS V14.01,2013-03-15 02:44:00,
2013-03-14 21:49:00,66.1,52.7,30.24,SSE,159,0.0,7.0,62,0.00,,SKC,0.00,VWS V14.01,2013-03-15 02:49:00,
2013-03-14 21:50:00,66.3,52.9,30.24,SSE,160,0.0,11.0,62,0.00,,SKC,0.00,VWS V14.01,2013-03-15 02:50:00,
2013-03-14 21:54:00,65.9,53.0,30.24,SSE,166,5.0,11.0,63,0.00,,SKC,0.00,VWS V14.01,2013-03-15 02:54:00,
2013-03-14 21:59:00,65.7,52.8,30.24,SSE,159,8.0,9.0,63,0.00,,SKC,0.00,VWS V14.01,2013-03-15 02:59:00,
2013-03-14 22:00:00,65.8,52.9,30.24,SSE,164,0.0,11.0,63,0.00,,SKC,0.00,VWS V14.01,2013-03-15 03:00:00,
2013-03-14 22:04:00,65.4,52.9,30.24,SSE,161,0.0,12.0,64,0.00,,SKC,0.00,VWS V14.01,2013-03-15 03:04:00,
2013-03-14 22:09:00,65.2,52.7,30.24,South,172,2.0,12.0,64,0.00,,SKC,0.00,VWS V14.01,2013-03-15 03:09:00,
2013-03-14 22:10:00,65.3,52.8,30.24,SSE,161,5.0,12.0,64,0.00,,SKC,0.00,VWS V14.01,2013-03-15 03:10:00,
2013-03-14 22:14:00,65.0,53.0,30.24,South,169,4.0,12.0,65,0.00,,SKC,0.00,VWS V14.01,2013-03-15 03:14:00,
2013-03-14 22:19:00,64.8,52.8,30.24,SSE,165,4.0,11.0,65,0.00,,SKC,0.00,VWS V14.01,2013-03-15 03:19:00,
2013-03-14 22:20:00,64.9,52.9,30.24,SSE,166,2.0,12.0,65,0.00,,SKC,0.00,VWS V14.01,2013-03-15 03:20:00,
2013-03-14 22:24:00,64.6,53.0,30.25,SSE,163,6.0,14.0,66,0.00,,SKC,0.00,VWS V14.01,2013-03-15 03:24:00,
2013-03-14 22:29:00,64.4,52.8,30.25,SSE,166,3.0,11.0,66,0.00,,SKC,0.00,VWS V14.01,2013-03-15 03:29:00,
2013-03-14 22:30:00,64.4,52.8,30.25,SSE,167,0.0,14.0,66,0.00,,SKC,0.00,VWS V14.01,2013-03-15 03:30:00,
2013-03-14 22:34:00,64.2,52.6,30.25,South,171,4.0,11.0,66,0.00,,SKC,0.00,VWS V14.01,2013-03-15 03:34:00,
2013-03-14 22:39:00,64.0,52.8,30.25,South,171,0.0,5.0,67,0.00,,SKC,0.00,VWS V14.01,2013-03-15 03:39:00,
2013-03-14 22:40:00,64.1,52.5,30.25,South,171,5.0,11.0,66,0.00,,SKC,0.00,VWS V14.01,2013-03-15 03:40:00,
2013-03-14 22:44:00,63.7,52.5,30.25,South,173,0.0,5.0,67,0.00,,SKC,0.00,VWS V14.01,2013-03-15 03:44:00,
2013-03-14 22:49:00,63.4,52.7,30.25,South,173,4.0,9.0,68,0.00,,SKC,0.00,VWS V14.01,2013-03-15 03:49:00,
2013-03-14 22:50:00,63.5,52.4,30.25,South,173,0.0,5.0,67,0.00,,SKC,0.00,VWS V14.01,2013-03-15 03:50:00,
2013-03-14 22:54:00,63.1,52.8,30.25,South,170,0.0,9.0,69,0.00,,SKC,0.00,VWS V14.01,2013-03-15 03:54:00,
2013-03-14 22:59:00,62.9,53.0,30.25,SSE,167,5.0,10.0,70,0.00,,SKC,0.00,VWS V14.01,2013-03-15 03:59:00,
2013-03-14 23:00:00,62.9,53.0,30.25,SSE,167,0.0,10.0,70,0.00,,SKC,0.00,VWS V14.01,2013-03-15 04:00:00,
2013-03-14 23:05:00,62.7,53.2,30.25,SSE,167,2.0,10.0,71,0.00,,SKC,0.00,VWS V14.01,2013-03-15 04:05:00,
2013-03-14 23:10:00,62.5,53.0,30.25,SSE,168,2.0,8.0,71,0.00,,SKC,0.00,VWS V14.01,2013-03-15 04:10:00,
2013-03-14 23:15:00,62.3,53.2,30.25,SSE,167,0.0,8.0,72,0.00,,SKC,0.00,VWS V14.01,2013-03-15 04:15:00,
2013-03-14 23:20:00,62.1,53.3,30.25,SSE,167,4.0,6.0,73,0.00,,SKC,0.00,VWS V14.01,2013-03-15 04:20:00,
2013-03-14 23:25:00,61.9,53.5,30.24,SSE,167,2.0,9.0,74,0.00,,SKC,0.00,VWS V14.01,2013-03-15 04:25:00,
2013-03-14 23:30:00,61.7,53.3,30.24,SSE,167,0.0,7.0,74,0.00,,SKC,0.00,VWS V14.01,2013-03-15 04:30:00,
2013-03-14 23:35:00,61.5,53.5,30.24,SSE,165,0.0,11.0,75,0.00,,SKC,0.00,VWS V14.01,2013-03-15 04:35:00,
2013-03-14 23:40:00,61.3,53.3,30.24,SSE,166,4.0,5.0,75,0.00,,SKC,0.00,VWS V14.01,2013-03-15 04:40:00,
2013-03-14 23:45:00,61.2,53.6,30.24,SSE,166,0.0,7.0,76,0.00,,SKC,0.00,VWS V14.01,2013-03-15 04:45:00,
2013-03-14 23:50:00,61.0,53.4,30.24,SSE,166,5.0,5.0,76,0.00,,SKC,0.00,VWS V14.01,2013-03-15 04:50:00,
2013-03-14 23:55:00,60.8,53.5,30.24,SSE,166,0.0,7.0,77,0.00,,SKC,0.00,VWS V14.01,2013-03-15 04:55:00,